Time;durP1;ratioP1;P1;durP2;ratioP2;P2;SDS_P1;SDS_P2;PMS_P1;PMS_P2;Temp;Humidity;BMP_temperature;BMP_pressure;BME280_temperature;BME280_humidity;BME280_pressure;Samples;Min_cycle;Max_cycle;Signal;HPM_P1;HPM_P2
2021/07/15 00:01:10;;;;;;;3.35;1.77;;;;;;;17.66;59.85;100648.78;3565707;40;20097;-75
2021/07/15 00:03:38;;;;;;;2.97;1.65;;;;;;;17.65;59.32;100647.06;3566998;40;20299;-75
2021/07/15 00:06:06;;;;;;;2.67;1.60;;;;;;;17.64;59.37;100643.44;3564195;40;20099;-75
2021/07/15 00:08:34;;;;;;;2.92;1.70;;;;;;;17.63;59.65;100647.25;3566094;40;20058;-75
2021/07/15 00:11:07;;;;;;;3.03;1.77;;;;;;;17.64;59.36;100657.28;3566746;40;20420;-75
2021/07/15 00:13:37;;;;;;;3.85;1.80;;;;;;;17.61;59.78;100663.19;3570682;40;20055;-75
2021/07/15 00:16:09;;;;;;;3.17;1.77;;;;;;;17.61;59.40;100657.66;3566587;40;20041;-75
2021/07/15 00:18:39;;;;;;;2.78;1.65;;;;;;;17.60;59.80;100655.06;3558059;40;20069;-75
2021/07/15 00:21:11;;;;;;;3.67;2.00;;;;;;;17.59;59.70;100665.28;3566211;40;20056;-75
2021/07/15 00:23:40;;;;;;;3.17;1.88;;;;;;;17.58;59.17;100665.44;3562834;40;20045;-75
2021/07/15 00:26:08;;;;;;;6.55;2.00;;;;;;;17.56;59.48;100659.22;3565701;40;20050;-75
2021/07/15 00:28:39;;;;;;;3.58;2.03;;;;;;;17.56;59.54;100654.56;3565922;40;20061;-75
2021/07/15 00:31:07;;;;;;;3.83;1.98;;;;;;;17.52;59.18;100653.22;3563323;40;20131;-75
2021/07/15 00:33:36;;;;;;;5.10;2.08;;;;;;;17.51;59.19;100648.72;3566943;40;20154;-75
2021/07/15 00:36:05;;;;;;;3.38;1.80;;;;;;;17.50;59.73;100655.28;3565244;40;20046;-75
2021/07/15 00:38:34;;;;;;;3.40;2.00;;;;;;;17.51;59.91;100661.69;3556709;40;20115;-75
2021/07/15 00:41:02;;;;;;;3.40;1.95;;;;;;;17.48;59.35;100649.09;3566672;40;20142;-75
2021/07/15 00:43:30;;;;;;;3.00;1.95;;;;;;;17.50;59.63;100659.97;3567431;40;20060;-75
2021/07/15 00:45:59;;;;;;;3.30;2.10;;;;;;;17.51;60.03;100664.47;3553072;40;20131;-75
2021/07/15 00:48:27;;;;;;;3.03;1.77;;;;;;;17.48;59.42;100665.69;3566771;40;20406;-75
2021/07/15 00:50:56;;;;;;;3.78;2.08;;;;;;;17.48;59.66;100662.03;3563585;40;20049;-75
2021/07/15 00:53:25;;;;;;;4.30;1.83;;;;;;;17.48;60.25;100667.56;3566603;40;20483;-75
2021/07/15 00:55:53;;;;;;;3.30;2.10;;;;;;;17.46;60.05;100662.22;3565764;40;20049;-74
2021/07/15 00:58:21;;;;;;;3.55;2.25;;;;;;;17.47;60.09;100671.38;3558230;40;20057;-75
2021/07/15 01:00:51;;;;;;;3.20;1.92;;;;;;;17.48;59.86;100671.22;3563627;40;20052;-75
2021/07/15 01:03:21;;;;;;;3.22;1.77;;;;;;;17.49;60.27;100675.69;3567173;40;20056;-75
2021/07/15 01:05:51;;;;;;;2.90;1.85;;;;;;;17.47;60.20;100669.47;3557541;40;20070;-75
2021/07/15 01:08:19;;;;;;;3.55;1.75;;;;;;;17.45;59.97;100663.28;3558188;40;20330;-75
2021/07/15 01:10:53;;;;;;;3.75;1.95;;;;;;;17.48;59.96;100665.69;3555117;40;20146;-75
2021/07/15 01:13:30;;;;;;;3.70;2.40;;;;;;;17.46;59.25;100662.22;3566586;40;20053;-75
2021/07/15 01:16:09;;;;;;;3.10;1.90;;;;;;;17.48;60.25;100662.91;3563023;40;20037;-75
2021/07/15 01:18:55;;;;;;;3.90;2.08;;;;;;;17.48;59.62;100660.16;3562702;40;20056;-75
2021/07/15 01:21:49;;;;;;;2.67;1.58;;;;;;;17.45;59.69;100657.75;3562571;40;20046;-75
2021/07/15 01:24:38;;;;;;;3.83;2.15;;;;;;;17.46;59.81;100659.47;3565337;40;20045;-75
2021/07/15 01:27:30;;;;;;;3.38;2.00;;;;;;;17.46;59.84;100656.69;3564286;40;20041;-75
2021/07/15 01:30:08;;;;;;;2.83;1.80;;;;;;;17.45;60.29;100657.75;3564578;40;20061;-75
2021/07/15 01:32:43;;;;;;;3.13;1.90;;;;;;;17.45;59.65;100659.66;3565780;40;20045;-75
2021/07/15 01:35:14;;;;;;;3.33;1.90;;;;;;;17.43;59.93;100657.06;3561331;40;20139;-75
2021/07/15 01:37:48;;;;;;;4.40;2.20;;;;;;;17.43;59.95;100656.22;3564989;40;20052;-75
2021/07/15 01:40:19;;;;;;;2.63;1.67;;;;;;;17.42;59.93;100657.25;3567008;40;20045;-75
2021/07/15 01:42:49;;;;;;;2.95;1.75;;;;;;;17.41;59.61;100647.22;3568523;40;20143;-75
2021/07/15 01:45:18;;;;;;;2.33;1.60;;;;;;;17.41;60.10;100648.09;3568670;40;20104;-75
2021/07/15 01:47:47;;;;;;;3.42;1.98;;;;;;;17.40;59.72;100651.03;3565022;40;20037;-75
2021/07/15 01:50:16;;;;;;;2.90;1.80;;;;;;;17.39;59.69;100652.94;3563936;40;20093;-75
2021/07/15 01:52:44;;;;;;;4.43;1.80;;;;;;;17.38;59.55;100665.03;3567996;40;20044;-74
2021/07/15 01:55:13;;;;;;;2.97;1.73;;;;;;;17.39;60.05;100665.91;3567567;40;20398;-74
2021/07/15 01:57:43;;;;;;;2.85;1.80;;;;;;;17.38;59.62;100664.16;3563449;40;20119;-75
2021/07/15 02:00:12;;;;;;;2.65;1.67;;;;;;;17.37;59.88;100666.09;3567447;40;20089;-75
2021/07/15 02:02:44;;;;;;;2.35;1.55;;;;;;;17.39;60.27;100676.97;3568017;40;20042;-75
2021/07/15 02:05:13;;;;;;;;;;;;;;;17.08;60.62;100676.91;3568834;40;20057;-75
2021/07/15 02:07:43;;;;;;;3.22;1.63;;;;;;;17.31;60.20;100673.19;3557711;40;20014;-75
2021/07/15 02:10:16;;;;;;;2.25;1.55;;;;;;;17.35;60.04;100657.13;3567844;40;20057;-75
2021/07/15 02:12:45;;;;;;;2.30;1.40;;;;;;;17.32;60.14;100654.72;3568956;40;20496;-75
2021/07/15 02:15:13;;;;;;;2.67;1.60;;;;;;;17.33;59.68;100666.63;3567118;40;20053;-75
2021/07/15 02:17:43;;;;;;;3.10;1.75;;;;;;;17.35;59.89;100672.84;3567361;40;20045;-75
2021/07/15 02:20:14;;;;;;;3.25;1.73;;;;;;;17.35;59.86;100678.38;3563072;40;20061;-75
2021/07/15 02:22:44;;;;;;;2.42;1.52;;;;;;;17.32;59.80;100685.13;3558219;40;20049;-75
2021/07/15 02:25:14;;;;;;;2.67;1.70;;;;;;;17.30;59.38;100679.78;3567825;40;20057;-75
2021/07/15 02:27:45;;;;;;;2.25;1.50;;;;;;;17.30;59.59;100677.00;3567291;40;20049;-75
2021/07/15 02:30:16;;;;;;;3.08;1.60;;;;;;;17.31;59.75;100680.63;3561954;40;20473;-75
2021/07/15 02:32:51;;;;;;;2.90;1.73;;;;;;;17.29;60.00;100689.09;3567691;40;20490;-75
2021/07/15 02:35:21;;;;;;;3.33;1.50;;;;;;;17.29;59.87;100686.34;3568357;40;20057;-74
2021/07/15 02:37:52;;;;;;;2.70;1.52;;;;;;;17.29;60.02;100688.22;3557334;40;20034;-75
2021/07/15 02:40:21;;;;;;;2.90;1.50;;;;;;;17.28;60.26;100686.53;3567454;40;20064;-75
2021/07/15 02:42:49;;;;;;;3.15;1.75;;;;;;;17.29;60.00;100680.81;3565764;40;20061;-75
2021/07/15 02:45:20;;;;;;;2.72;1.52;;;;;;;17.30;60.21;100674.25;3568052;40;20398;-75
2021/07/15 02:47:51;;;;;;;3.65;1.90;;;;;;;17.31;60.10;100661.28;3564996;40;20041;-75
2021/07/15 02:50:22;;;;;;;3.97;1.70;;;;;;;17.31;60.63;100653.84;3566407;40;20061;-75
2021/07/15 02:52:51;;;;;;;2.80;1.88;;;;;;;17.31;60.57;100658.50;3565027;40;20119;-75
2021/07/15 02:55:20;;;;;;;2.78;1.67;;;;;;;17.30;60.05;100654.88;3562169;40;20059;-75
2021/07/15 02:57:57;;;;;;;2.40;1.65;;;;;;;17.34;60.04;100655.41;3566100;40;20029;-75
2021/07/15 03:00:26;;;;;;;4.18;2.00;;;;;;;17.33;59.75;100658.34;3566460;40;20056;-75
2021/07/15 03:03:03;;;;;;;2.85;1.98;;;;;;;17.36;60.27;100660.75;3567084;40;20283;-75
2021/07/15 03:05:36;;;;;;;3.15;1.83;;;;;;;17.34;59.80;100663.69;3566389;40;20050;-75
2021/07/15 03:08:07;;;;;;;2.97;1.80;;;;;;;17.34;60.40;100657.31;3567098;40;20576;-75
2021/07/15 03:10:36;;;;;;;3.03;1.85;;;;;;;17.32;60.26;100663.00;3554273;40;20092;-75
2021/07/15 03:13:09;;;;;;;3.28;1.90;;;;;;;17.33;59.67;100669.41;3567604;40;20414;-75
2021/07/15 03:15:39;;;;;;;;;;;;;;;17.04;60.85;100673.66;3561735;40;20075;-75
2021/07/15 03:18:09;;;;;;;2.35;1.65;;;;;;;17.28;59.89;100672.72;3565535;40;19933;-75
2021/07/15 03:20:41;;;;;;;2.78;1.90;;;;;;;17.30;60.13;100676.13;3567289;40;20061;-75
2021/07/15 03:23:13;;;;;;;2.78;1.60;;;;;;;17.31;60.23;100677.88;3567165;40;20540;-75
2021/07/15 03:25:46;;;;;;;3.15;1.70;;;;;;;17.26;59.77;100672.00;3567264;40;20443;-75
2021/07/15 03:28:16;;;;;;;3.08;1.90;;;;;;;17.28;60.23;100669.97;3567223;40;20071;-75
2021/07/15 03:30:44;;;;;;;3.10;1.90;;;;;;;17.27;60.28;100684.81;3565634;40;20057;-75
2021/07/15 03:33:15;;;;;;;3.72;2.10;;;;;;;17.29;59.55;100688.22;3567460;40;20069;-74
2021/07/15 03:35:44;;;;;;;3.22;1.77;;;;;;;17.26;59.97;100697.75;3566115;40;20085;-75
2021/07/15 03:38:15;;;;;;;2.90;1.75;;;;;;;17.26;59.83;100710.69;3557543;40;20057;-75
2021/07/15 03:40:44;;;;;;;3.65;1.70;;;;;;;17.21;59.96;100704.81;3567765;40;20089;-75
2021/07/15 03:43:16;;;;;;;3.05;2.00;;;;;;;17.22;60.02;100703.78;3570752;40;20076;-75
2021/07/15 03:45:49;;;;;;;2.35;1.70;;;;;;;17.19;59.99;100710.56;3567211;40;20687;-74
2021/07/15 03:48:19;;;;;;;3.03;2.00;;;;;;;17.19;60.00;100718.84;3557278;40;20053;-75
2021/07/15 03:50:47;;;;;;;2.92;1.90;;;;;;;17.18;59.78;100730.09;3566652;40;20218;-75
2021/07/15 03:53:18;;;;;;;2.78;1.83;;;;;;;17.18;59.38;100739.25;3568322;40;20415;-75
2021/07/15 03:55:47;;;;;;;2.92;1.88;;;;;;;17.17;59.49;100742.19;3568697;40;20402;-75
2021/07/15 03:58:15;;;;;;;3.10;1.73;;;;;;;17.15;59.42;100742.34;3570991;40;20026;-75
2021/07/15 04:00:45;;;;;;;2.50;1.52;;;;;;;17.15;59.48;100736.81;3568581;40;20307;-75
2021/07/15 04:03:19;;;;;;;2.90;1.70;;;;;;;17.16;60.06;100737.69;3563792;40;20089;-75
2021/07/15 04:05:48;;;;;;;3.60;1.88;;;;;;;17.14;60.22;100740.63;3556554;40;20061;-75
2021/07/15 04:08:18;;;;;;;2.75;1.52;;;;;;;17.15;59.88;100750.66;3553894;40;20079;-75
2021/07/15 04:10:48;;;;;;;2.30;1.50;;;;;;;17.15;59.71;100763.59;3566622;40;20126;-74
2021/07/15 04:13:17;;;;;;;3.63;1.25;;;;;;;17.16;60.30;100765.34;3568016;40;20086;-75
2021/07/15 04:16:07;;;;;;;2.95;1.40;;;;;;;17.17;60.45;100764.28;3565102;40;20397;-75
2021/07/15 04:18:39;;;;;;;2.60;1.33;;;;;;;17.15;59.66;100769.13;3566736;40;20091;-75
2021/07/15 04:21:08;;;;;;;2.42;1.33;;;;;;;17.12;60.02;100763.97;3566692;40;20041;-75
2021/07/15 04:23:37;;;;;;;2.35;1.25;;;;;;;17.12;59.58;100767.59;3566271;40;20361;-75
2021/07/15 04:26:06;;;;;;;1.98;1.30;;;;;;;17.12;60.04;100767.59;3563014;40;20275;-75
2021/07/15 04:28:35;;;;;;;1.95;1.30;;;;;;;17.12;60.24;100763.97;3566964;40;20414;-75
2021/07/15 04:31:29;;;;;;;1.88;1.10;;;;;;;17.09;60.58;100765.19;3565008;40;20123;-75
2021/07/15 04:34:00;;;;;;;3.35;1.35;;;;;;;17.11;59.99;100746.53;3567596;40;20057;-75
2021/07/15 04:36:30;;;;;;;2.85;1.23;;;;;;;17.12;60.13;100744.63;3556483;40;20119;-75
2021/07/15 04:38:59;;;;;;;2.63;1.20;;;;;;;17.12;60.12;100722.50;3556847;40;20080;-75
2021/07/15 04:41:28;;;;;;;1.98;1.25;;;;;;;17.12;60.46;100733.56;3556623;40;20123;-75
2021/07/15 04:43:58;;;;;;;1.95;1.10;;;;;;;17.14;60.76;100724.03;3566497;40;20041;-76
2021/07/15 04:46:27;;;;;;;2.00;1.20;;;;;;;17.15;60.29;100720.25;3564139;40;20038;-74
2021/07/15 04:48:55;;;;;;;1.90;1.30;;;;;;;17.16;60.21;100721.09;3561792;40;20055;-74
2021/07/15 04:51:26;;;;;;;1.60;1.10;;;;;;;17.19;60.72;100718.84;3564971;40;20107;-74
2021/07/15 04:53:56;;;;;;;1.85;1.17;;;;;;;17.19;60.80;100705.03;3564483;40;20057;-74
2021/07/15 04:56:24;;;;;;;2.08;1.42;;;;;;;17.19;60.60;100702.28;3564542;40;20053;-75
2021/07/15 04:59:03;;;;;;;2.38;1.40;;;;;;;17.24;60.87;100707.25;3566538;40;20055;-74
2021/07/15 05:01:32;;;;;;;3.03;1.55;;;;;;;17.22;60.84;100709.31;3566624;40;20041;-74
2021/07/15 05:04:00;;;;;;;3.80;1.88;;;;;;;17.23;60.26;100725.72;3565450;40;20049;-74
2021/07/15 05:06:29;;;;;;;4.07;2.40;;;;;;;17.26;60.66;100738.34;3563292;40;20034;-73
2021/07/15 05:08:58;;;;;;;4.90;3.15;;;;;;;17.27;60.67;100745.63;3565831;40;20057;-74
2021/07/15 05:11:26;;;;;;;4.30;3.10;;;;;;;17.28;60.76;100748.22;3559963;40;20402;-74
2021/07/15 05:13:54;;;;;;;5.18;4.10;;;;;;;17.31;61.19;100749.75;3564559;40;20080;-74
2021/07/15 05:16:24;;;;;;;4.97;4.03;;;;;;;17.35;61.10;100761.31;3562226;40;20049;-74
2021/07/15 05:18:52;;;;;;;9.20;7.45;;;;;;;17.37;60.67;100762.88;3564133;40;20061;-74
2021/07/15 05:21:20;;;;;;;10.52;6.82;;;;;;;17.39;60.91;100762.69;3565095;40;20131;-74
2021/07/15 05:23:49;;;;;;;8.60;5.88;;;;;;;17.43;60.99;100764.94;3568046;40;20037;-75
2021/07/15 05:26:18;;;;;;;8.40;5.78;;;;;;;17.44;61.12;100769.41;3558446;40;20048;-75
2021/07/15 05:29:02;;;;;;;8.32;6.13;;;;;;;17.47;60.96;100755.22;3567258;40;20456;-75
2021/07/15 05:31:31;;;;;;;7.55;5.85;;;;;;;17.49;61.04;100760.56;3565016;40;20030;-75
2021/07/15 05:34:01;;;;;;;9.57;6.78;;;;;;;17.51;61.02;100769.56;3556556;40;20053;-74
2021/07/15 05:36:30;;;;;;;8.48;5.97;;;;;;;17.55;60.89;100768.13;3556311;40;20053;-75
2021/07/15 05:39:00;;;;;;;8.43;5.95;;;;;;;17.57;60.98;100771.59;3567633;40;20053;-74
2021/07/15 05:41:30;;;;;;;9.15;7.30;;;;;;;17.58;60.75;100771.41;3564704;40;20053;-74
2021/07/15 05:44:01;;;;;;;9.50;7.07;;;;;;;17.60;60.42;100774.00;3564108;40;20053;-74
2021/07/15 05:46:33;;;;;;;9.23;8.00;;;;;;;17.60;60.44;100763.81;3563666;40;20045;-75
2021/07/15 05:49:02;;;;;;;10.27;7.20;;;;;;;17.62;60.87;100789.34;3567709;40;20048;-74
2021/07/15 05:51:32;;;;;;;11.48;7.32;;;;;;;17.65;60.52;100791.78;3566240;40;20053;-74
2021/07/15 05:54:07;;;;;;;10.25;8.35;;;;;;;17.67;60.62;100786.94;3565130;40;20049;-74
2021/07/15 05:57:16;;;;;;;10.23;7.05;;;;;;;17.64;60.47;100781.75;3563621;40;20467;-73
2021/07/15 05:59:44;;;;;;;10.57;7.47;;;;;;;17.67;60.54;100788.84;3566124;40;20049;-73
2021/07/15 06:02:12;;;;;;;9.55;7.20;;;;;;;17.69;60.16;100784.84;3566842;40;21374;-73
2021/07/15 06:04:41;;;;;;;10.80;7.00;;;;;;;17.71;60.74;100790.19;3565244;40;20050;-74
2021/07/15 06:07:09;;;;;;;8.93;6.25;;;;;;;17.72;60.26;100793.81;3565585;40;20111;-76
2021/07/15 06:09:38;;;;;;;8.35;6.28;;;;;;;17.75;60.72;100797.09;3558754;40;20069;-72
2021/07/15 06:12:07;;;;;;;7.97;6.20;;;;;;;17.75;60.79;100799.00;3564822;40;20049;-73
2021/07/15 06:14:35;;;;;;;8.82;6.35;;;;;;;17.77;60.69;100802.44;3569539;40;20490;-74
2021/07/15 06:17:04;;;;;;;8.88;6.22;;;;;;;17.79;60.75;100797.56;3566197;40;20046;-73
2021/07/15 06:19:32;;;;;;;9.02;6.45;;;;;;;17.78;60.30;100791.22;3557497;40;20139;-72
2021/07/15 06:22:00;;;;;;;10.00;6.18;;;;;;;17.81;60.67;100806.56;3565537;40;20403;-74
2021/07/15 06:24:29;;;;;;;10.05;6.13;;;;;;;17.83;60.64;100810.03;3567989;40;20053;-73
2021/07/15 06:26:58;;;;;;;7.93;5.30;;;;;;;17.86;60.60;100812.44;3563507;40;20039;-74
2021/07/15 06:29:29;;;;;;;8.45;5.93;;;;;;;17.85;60.48;100816.25;3564925;40;20042;-74
2021/07/15 06:31:58;;;;;;;7.55;5.05;;;;;;;17.85;60.68;100825.41;3562502;40;20538;-73
2021/07/15 06:34:27;;;;;;;7.30;5.18;;;;;;;17.86;60.38;100821.59;3567387;40;20053;-73
2021/07/15 06:36:54;;;;;;;7.45;4.93;;;;;;;17.86;60.15;100817.97;3556365;40;20384;-73
2021/07/15 06:39:23;;;;;;;5.40;4.30;;;;;;;17.87;60.54;100819.66;3558413;40;20089;-72
2021/07/15 06:41:51;;;;;;;7.05;4.50;;;;;;;17.86;60.44;100824.38;3566716;40;20135;-74
2021/07/15 06:44:21;;;;;;;7.25;4.45;;;;;;;17.90;60.20;100833.16;3565669;40;20053;-74
2021/07/15 06:46:49;;;;;;;5.80;4.30;;;;;;;17.87;60.22;100834.38;3567173;40;20057;-73
2021/07/15 06:49:17;;;;;;;6.30;4.38;;;;;;;17.87;60.81;100834.38;3564856;40;20049;-73
2021/07/15 06:51:46;;;;;;;6.25;4.38;;;;;;;17.89;60.83;100826.75;3564853;40;20052;-73
2021/07/15 06:54:14;;;;;;;6.55;3.92;;;;;;;17.91;60.50;100837.66;3566918;40;20085;-73
2021/07/15 06:56:43;;;;;;;6.35;3.72;;;;;;;17.90;60.33;100834.03;3555292;40;20123;-74
2021/07/15 06:59:11;;;;;;;5.50;3.70;;;;;;;17.92;60.23;100842.16;3554885;40;20316;-74
2021/07/15 07:01:40;;;;;;;6.45;4.13;;;;;;;17.95;60.36;100847.31;3552278;40;20128;-74
2021/07/15 07:04:08;;;;;;;6.05;4.18;;;;;;;17.94;60.31;100848.38;3554904;40;20309;-74
2021/07/15 07:06:36;;;;;;;5.97;3.95;;;;;;;17.94;60.47;100846.47;3565296;40;20048;-74
2021/07/15 07:09:04;;;;;;;7.05;4.10;;;;;;;17.96;60.61;100849.03;3567721;40;20053;-74
2021/07/15 07:11:32;;;;;;;5.05;3.42;;;;;;;17.97;60.23;100854.38;3565567;40;20053;-74
2021/07/15 07:14:00;;;;;;;5.18;3.58;;;;;;;17.98;60.21;100849.72;3564388;40;20081;-74
2021/07/15 07:16:28;;;;;;;5.43;3.80;;;;;;;17.98;60.79;100858.03;3555811;40;20131;-74
2021/07/15 07:18:58;;;;;;;5.50;3.70;;;;;;;18.03;60.54;100866.66;3567399;40;20053;-74
2021/07/15 07:21:30;;;;;;;6.25;3.97;;;;;;;18.04;60.56;100872.03;3556733;40;20038;-74
2021/07/15 07:23:59;;;;;;;6.55;4.22;;;;;;;18.03;60.62;100866.66;3567063;40;20078;-73
2021/07/15 07:26:27;;;;;;;6.80;4.32;;;;;;;18.04;60.95;100863.72;3565892;40;20131;-73
2021/07/15 07:28:55;;;;;;;6.60;4.47;;;;;;;18.07;60.80;100868.03;3564215;40;20064;-73
2021/07/15 07:31:23;;;;;;;5.38;3.80;;;;;;;18.08;60.81;100872.53;3565733;40;20373;-73
2021/07/15 07:33:51;;;;;;;6.60;4.38;;;;;;;18.10;60.77;100881.53;3566114;40;20524;-73
2021/07/15 07:36:20;;;;;;;7.47;4.55;;;;;;;18.15;60.93;100880.97;3548992;40;20041;-73
2021/07/15 07:38:48;;;;;;;5.50;4.10;;;;;;;18.15;60.50;100878.22;3557965;40;20065;-72
2021/07/15 07:41:16;;;;;;;6.53;4.25;;;;;;;18.14;60.47;100880.13;3567161;40;20044;-73
2021/07/15 07:43:44;;;;;;;6.28;4.43;;;;;;;18.18;60.46;100883.41;3556897;40;20057;-72
2021/07/15 07:46:12;;;;;;;7.30;4.65;;;;;;;18.19;60.78;100877.69;3565617;40;20117;-72
2021/07/15 07:48:41;;;;;;;6.38;4.32;;;;;;;18.21;60.83;100875.56;3565000;40;20314;-72
2021/07/15 07:51:12;;;;;;;5.10;3.70;;;;;;;18.23;60.86;100876.25;3564876;40;20053;-72
2021/07/15 07:53:44;;;;;;;5.97;4.07;;;;;;;18.27;60.75;100868.47;3566627;40;20061;-72
2021/07/15 07:56:12;;;;;;;5.93;3.70;;;;;;;18.28;61.05;100865.47;3563067;40;20131;-72
2021/07/15 07:58:40;;;;;;;6.78;4.05;;;;;;;18.31;61.13;100873.44;3561010;40;20473;-73
2021/07/15 08:01:08;;;;;;;7.70;5.13;;;;;;;18.36;61.45;100867.38;3554431;40;20040;-74
2021/07/15 08:03:37;;;;;;;8.02;5.13;;;;;;;18.42;61.58;100875.81;3565013;40;20147;-73
2021/07/15 08:06:05;;;;;;;6.50;4.60;;;;;;;18.48;61.33;100873.34;3565943;40;20057;-73
2021/07/15 08:08:35;;;;;;;6.05;5.00;;;;;;;18.54;61.77;100876.22;3567707;40;20049;-74
2021/07/15 08:11:05;;;;;;;7.00;5.30;;;;;;;18.61;61.73;100866.13;3566074;40;20037;-74
2021/07/15 08:13:33;;;;;;;7.88;5.80;;;;;;;18.67;61.92;100865.41;3564503;40;20065;-74
2021/07/15 08:16:01;;;;;;;7.45;5.47;;;;;;;18.75;61.48;100865.34;3566142;40;20049;-74
2021/07/15 08:18:30;;;;;;;6.97;5.10;;;;;;;18.84;61.73;100863.41;3566773;40;20690;-75
2021/07/15 08:20:58;;;;;;;8.50;6.47;;;;;;;18.92;62.13;100865.22;3564168;40;20036;-75
2021/07/15 08:23:26;;;;;;;7.18;5.90;;;;;;;18.99;61.64;100864.28;3566037;40;20041;-71
2021/07/15 08:25:54;;;;;;;6.70;5.68;;;;;;;19.09;61.25;100864.03;3563888;40;20049;-71
2021/07/15 08:28:23;;;;;;;8.48;6.55;;;;;;;19.19;61.69;100867.38;3566166;40;20045;-71
2021/07/15 08:30:51;;;;;;;7.18;5.63;;;;;;;19.26;61.58;100865.59;3563329;40;20042;-71
2021/07/15 08:33:19;;;;;;;7.07;5.80;;;;;;;19.34;61.64;100862.75;3566983;40;20085;-71
2021/07/15 08:35:47;;;;;;;7.38;5.65;;;;;;;19.44;61.36;100871.63;3567303;40;21921;-72
2021/07/15 08:38:16;;;;;;;7.80;5.45;;;;;;;19.52;60.82;100874.34;3566974;40;20711;-72
2021/07/15 08:40:45;;;;;;;7.65;4.97;;;;;;;19.62;60.73;100878.75;3570030;40;20141;-73
2021/07/15 08:43:14;;;;;;;6.70;4.80;;;;;;;19.68;61.13;100864.13;3566853;40;20060;-72
2021/07/15 08:45:45;;;;;;;6.47;4.85;;;;;;;19.76;60.66;100867.63;3566469;40;20404;-72
2021/07/15 08:48:15;;;;;;;6.05;4.78;;;;;;;19.81;60.43;100864.28;3560560;40;20176;-73
2021/07/15 08:50:43;;;;;;;6.32;5.38;;;;;;;19.86;60.50;100868.19;3561153;40;20064;-72
2021/07/15 08:53:11;;;;;;;6.47;4.50;;;;;;;19.94;60.45;100865.31;3565822;40;20041;-72
2021/07/15 08:58:25;;;;;;;5.70;4.32;;;;;;;20.09;60.43;100868.06;3560408;40;20057;-72
2021/07/15 09:00:55;;;;;;;5.15;4.10;;;;;;;20.20;60.34;100875.91;3571811;40;20294;-72
2021/07/15 09:03:23;;;;;;;4.70;3.95;;;;;;;20.26;60.34;100875.16;3566619;40;20081;-72
2021/07/15 09:05:51;;;;;;;5.10;4.25;;;;;;;20.35;60.43;100870.34;3555305;40;20037;-73
2021/07/15 09:08:20;;;;;;;5.68;4.82;;;;;;;20.44;60.54;100877.50;3556383;40;20056;-73
2021/07/15 09:10:48;;;;;;;5.97;5.22;;;;;;;20.52;60.06;100876.50;3565157;40;20045;-73
2021/07/15 09:13:16;;;;;;;5.97;4.93;;;;;;;20.59;59.83;100880.22;3563999;40;20060;-72
2021/07/15 09:15:49;;;;;;;6.72;5.18;;;;;;;20.68;58.83;100888.22;3565433;40;20057;-72
2021/07/15 09:18:18;;;;;;;5.03;4.35;;;;;;;20.71;59.42;100889.75;3566529;40;20060;-72
2021/07/15 09:20:47;;;;;;;5.57;4.82;;;;;;;20.76;58.96;100886.38;3562052;40;20053;-72
2021/07/15 09:23:17;;;;;;;5.07;4.40;;;;;;;20.81;58.68;100886.66;3564163;40;20437;-73
2021/07/15 09:25:56;;;;;;;4.90;4.32;;;;;;;20.86;58.56;100900.81;3568766;40;20135;-72
2021/07/15 09:28:32;;;;;;;4.88;4.28;;;;;;;20.86;58.55;100904.44;3566989;40;20061;-73
2021/07/15 09:31:17;;;;;;;4.95;4.28;;;;;;;20.88;57.93;100905.13;3566228;40;20393;-72
2021/07/15 09:33:48;;;;;;;5.60;4.63;;;;;;;20.88;58.27;100905.13;3557933;40;20049;-73
2021/07/15 09:36:19;;;;;;;5.63;4.70;;;;;;;20.90;58.70;100907.75;3556635;40;20073;-72
2021/07/15 09:38:48;;;;;;;5.53;4.43;;;;;;;20.87;58.35;100911.75;3564776;40;20057;-72
2021/07/15 09:41:20;;;;;;;4.82;4.30;;;;;;;20.92;58.41;100922.28;3565415;40;20092;-72
2021/07/15 09:43:49;;;;;;;;;;;;;;;20.62;58.76;100907.63;3566050;40;20403;-72
2021/07/15 09:46:23;;;;;;;5.00;4.00;;;;;;;20.91;58.54;100913.06;3556532;40;19943;-71
2021/07/15 09:49:04;;;;;;;5.22;4.25;;;;;;;20.94;57.49;100909.91;3572371;40;20590;-73
2021/07/15 09:51:41;;;;;;;4.68;4.13;;;;;;;20.95;57.64;100908.00;3564247;40;20128;-71
2021/07/15 09:54:10;;;;;;;4.50;3.85;;;;;;;20.92;57.64;100905.59;3564825;40;20120;-72
2021/07/15 09:56:42;;;;;;;4.32;3.67;;;;;;;20.92;57.65;100906.47;3565956;40;20465;-72
2021/07/15 09:59:10;;;;;;;;;;;;;;;20.63;58.43;100910.22;3565336;40;20049;-71
2021/07/15 10:01:45;;;;;;;3.95;2.90;;;;;;;20.89;57.60;100911.56;3564236;40;19937;-72
2021/07/15 10:04:22;;;;;;;4.60;3.03;;;;;;;20.92;57.46;100914.81;3567188;40;20053;-73
2021/07/15 10:06:51;;;;;;;4.50;3.22;;;;;;;20.91;57.57;100910.28;3562090;40;20046;-72
2021/07/15 10:09:24;;;;;;;3.92;3.00;;;;;;;20.94;57.56;100911.81;3566937;40;20057;-72
2021/07/15 10:11:56;;;;;;;4.38;3.05;;;;;;;20.91;58.06;100910.28;3562203;40;20040;-72
2021/07/15 10:14:34;;;;;;;3.88;3.00;;;;;;;20.93;57.64;100913.75;3567710;40;20065;-73
2021/07/15 10:17:03;;;;;;;3.65;2.33;;;;;;;20.90;58.10;100922.50;3567244;40;20379;-73
2021/07/15 10:19:33;;;;;;;4.43;2.88;;;;;;;20.94;58.28;100920.16;3567710;40;20424;-73
2021/07/15 10:22:03;;;;;;;4.38;2.58;;;;;;;20.95;58.53;100922.75;3566903;40;20100;-72
2021/07/15 10:24:31;;;;;;;4.47;2.80;;;;;;;20.97;58.38;100920.66;3563177;40;20053;-72
2021/07/15 10:27:03;;;;;;;3.85;2.63;;;;;;;21.00;58.38;100922.16;3566679;40;20116;-73
2021/07/15 10:29:32;;;;;;;4.23;2.63;;;;;;;21.00;58.45;100920.22;3568027;40;20057;-73
2021/07/15 10:32:02;;;;;;;4.88;2.92;;;;;;;21.06;58.04;100916.69;3567050;40;20356;-73
2021/07/15 10:34:31;;;;;;;4.38;2.95;;;;;;;21.08;57.90;100920.09;3550583;40;20147;-73
2021/07/15 10:37:01;;;;;;;3.95;2.78;;;;;;;21.14;57.78;100918.44;3565753;40;20129;-73
2021/07/15 10:39:30;;;;;;;4.15;2.78;;;;;;;21.16;57.96;100921.88;3566143;40;20061;-74
2021/07/15 10:42:01;;;;;;;3.90;2.83;;;;;;;21.23;58.01;100930.31;3564401;40;20046;-75
2021/07/15 10:44:29;;;;;;;4.28;2.63;;;;;;;21.24;57.86;100930.09;3565542;40;20065;-72
2021/07/15 10:46:58;;;;;;;5.68;3.67;;;;;;;21.27;58.27;100935.25;3562698;40;20082;-73
2021/07/15 10:49:26;;;;;;;4.88;3.58;;;;;;;21.30;57.80;100934.00;3567258;40;20061;-74
2021/07/15 10:51:56;;;;;;;4.25;3.13;;;;;;;21.33;57.68;100942.78;3563990;40;20049;-74
2021/07/15 10:54:26;;;;;;;5.63;3.17;;;;;;;21.36;57.65;100941.53;3567971;40;20049;-73
2021/07/15 10:56:54;;;;;;;4.07;2.88;;;;;;;21.35;57.86;100932.31;3564111;40;20053;-73
2021/07/15 10:59:24;;;;;;;5.82;3.83;;;;;;;21.38;57.63;100939.41;3566583;40;20049;-73
2021/07/15 11:01:53;;;;;;;4.70;3.63;;;;;;;21.37;57.90;100940.47;3569333;40;20379;-73
2021/07/15 11:04:37;;;;;;;4.65;3.08;;;;;;;21.37;57.77;100937.69;3559328;40;20046;-73
2021/07/15 11:07:23;;;;;;;4.68;3.50;;;;;;;21.32;56.24;100941.09;3562711;40;20059;-72
2021/07/15 11:09:55;;;;;;;5.22;3.40;;;;;;;21.33;56.75;100945.56;3566895;40;20053;-72
2021/07/15 11:12:32;;;;;;;5.25;3.67;;;;;;;21.34;56.99;100936.16;3565332;40;20037;-73
2021/07/15 11:15:05;;;;;;;5.60;3.95;;;;;;;21.32;57.32;100946.66;3564360;40;20445;-72
2021/07/15 11:17:41;;;;;;;4.90;3.55;;;;;;;21.30;57.17;100939.56;3556755;40;20516;-72
2021/07/15 11:20:12;;;;;;;4.97;3.40;;;;;;;21.30;57.63;100945.13;3567340;40;20499;-72
2021/07/15 11:22:48;;;;;;;5.10;3.75;;;;;;;21.29;56.69;100949.81;3563108;40;20389;-72
2021/07/15 11:25:33;;;;;;;5.65;3.50;;;;;;;21.28;57.33;100952.81;3564825;40;20061;-72
2021/07/15 11:28:04;;;;;;;5.80;3.80;;;;;;;21.24;57.01;100943.16;3564332;40;20096;-72
2021/07/15 11:30:52;;;;;;;5.13;3.63;;;;;;;21.21;56.54;100952.75;3563035;40;20081;-73
2021/07/15 11:33:39;;;;;;;5.25;3.42;;;;;;;21.22;57.37;100953.63;3553572;40;20058;-72
2021/07/15 11:36:27;;;;;;;5.15;3.40;;;;;;;21.22;57.30;100962.81;3565593;40;20053;-72
2021/07/15 11:38:58;;;;;;;4.63;3.35;;;;;;;21.22;57.15;100964.75;3564275;40;20061;-73
2021/07/15 11:41:46;;;;;;;5.07;3.80;;;;;;;21.23;56.69;100977.59;3564399;40;20399;-72
2021/07/15 11:44:16;;;;;;;5.03;3.78;;;;;;;21.22;57.57;100978.66;3566627;40;20064;-72
2021/07/15 11:46:45;;;;;;;5.63;3.92;;;;;;;21.22;56.80;100971.16;3567053;40;20053;-72